createdAt,value
2018-12-08T00:02:06.816Z,75.46
2018-12-08T00:05:31.680Z,75.09
2018-12-08T00:08:56.462Z,74.69
2018-12-08T00:12:21.118Z,74.03
2018-12-08T00:15:45.819Z,74.29
2018-12-08T00:19:10.538Z,73.93
2018-12-08T00:22:35.221Z,73.77
2018-12-08T00:26:00.013Z,73.48
2018-12-08T00:29:28.234Z,73.95
2018-12-08T00:32:52.960Z,74.32
2018-12-08T00:36:17.626Z,73.66
2018-12-08T00:39:44.606Z,73.00
2018-12-08T00:43:09.322Z,73.21
2018-12-08T00:46:34.028Z,74.09
2018-12-08T00:49:58.671Z,73.41
2018-12-08T00:53:23.544Z,73.91
2018-12-08T00:56:48.277Z,74.19
2018-12-08T01:00:13.489Z,74.29
2018-12-08T01:03:38.290Z,74.47
2018-12-08T01:07:02.990Z,75.05
2018-12-08T01:10:27.682Z,74.52
2018-12-08T01:13:52.429Z,74.48
2018-12-08T01:17:17.149Z,74.61
2018-12-08T01:20:41.827Z,73.88
2018-12-08T01:24:06.517Z,73.76
2018-12-08T01:27:31.239Z,74.55
2018-12-08T01:30:55.886Z,74.40
2018-12-08T01:34:20.574Z,74.46
2018-12-08T01:37:45.288Z,73.79
2018-12-08T01:41:09.937Z,73.43
2018-12-08T01:44:34.670Z,74.07
2018-12-08T01:47:59.349Z,73.50
2018-12-08T01:51:24.057Z,73.77
2018-12-08T01:54:48.740Z,73.74
2018-12-08T01:58:13.455Z,73.54
2018-12-08T02:01:38.160Z,74.41
2018-12-08T02:05:02.788Z,74.27
2018-12-08T02:08:27.489Z,74.85
2018-12-08T02:11:52.174Z,74.33
2018-12-08T02:15:16.828Z,75.08
2018-12-08T02:18:41.548Z,74.62
2018-12-08T02:22:06.206Z,75.10
2018-12-08T02:25:30.934Z,74.39
2018-12-08T02:28:55.652Z,74.35
2018-12-08T02:32:20.350Z,75.15
2018-12-08T02:35:45.151Z,74.94
2018-12-08T02:39:09.842Z,74.20
2018-12-08T02:42:34.532Z,74.38
2018-12-08T02:45:59.243Z,74.18
2018-12-08T02:49:23.972Z,74.28
2018-12-08T02:52:48.719Z,73.35
2018-12-08T02:56:13.402Z,73.28
2018-12-08T02:59:38.262Z,73.41
2018-12-08T03:03:02.957Z,73.85
2018-12-08T03:06:27.682Z,73.86
2018-12-08T03:09:52.372Z,73.42
2018-12-08T03:13:17.766Z,72.77
2018-12-08T03:16:42.487Z,72.69
2018-12-08T03:20:07.337Z,72.65
2018-12-08T03:23:32.030Z,72.98
2018-12-08T03:26:56.739Z,73.43
2018-12-08T03:30:21.429Z,72.98
2018-12-08T03:33:46.102Z,72.99
2018-12-08T03:37:10.782Z,72.50
2018-12-08T03:40:35.482Z,72.89
2018-12-08T03:44:00.160Z,73.69
2018-12-08T03:47:24.887Z,73.27
2018-12-08T03:50:49.529Z,73.79
2018-12-08T03:54:14.200Z,73.89
2018-12-08T03:57:38.887Z,74.04
2018-12-08T04:01:03.555Z,74.64
2018-12-08T04:04:28.295Z,77.51
2018-12-08T04:07:52.961Z,78.27
2018-12-08T04:11:17.647Z,78.54
2018-12-08T04:14:42.277Z,78.34
2018-12-08T04:18:06.970Z,78.14
2018-12-08T04:21:31.838Z,77.59
2018-12-08T04:24:56.508Z,76.41
2018-12-08T04:28:21.140Z,76.49
2018-12-08T04:31:45.853Z,76.40
2018-12-08T04:35:10.540Z,75.49
2018-12-08T04:38:35.282Z,74.41
2018-12-08T04:41:59.973Z,74.26
2018-12-08T04:45:24.623Z,73.70
2018-12-08T04:48:49.288Z,74.32
2018-12-08T04:52:13.965Z,74.20
2018-12-08T04:55:38.770Z,74.08
2018-12-08T04:59:03.548Z,73.59
2018-12-08T05:02:28.327Z,73.42
2018-12-08T05:05:53.083Z,73.75
2018-12-08T05:09:17.909Z,72.96
2018-12-08T05:12:42.584Z,72.19
2018-12-08T05:16:07.289Z,72.15
2018-12-08T05:19:31.962Z,72.08
2018-12-08T05:22:56.656Z,72.43
2018-12-08T05:26:21.368Z,72.27
2018-12-08T05:29:46.098Z,72.06
2018-12-08T05:33:10.914Z,71.67
2018-12-08T05:36:35.814Z,71.71
2018-12-08T05:40:00.488Z,72.56
2018-12-08T05:43:28.278Z,72.17
2018-12-08T05:46:53.600Z,72.00
2018-12-08T05:50:18.294Z,71.65
2018-12-08T05:53:43.047Z,72.39
2018-12-08T05:57:07.759Z,71.45
2018-12-08T06:00:32.826Z,71.50
2018-12-08T06:03:57.547Z,71.29
2018-12-08T06:07:22.277Z,70.96
2018-12-08T06:10:46.953Z,71.17
2018-12-08T06:14:11.636Z,70.55
2018-12-08T06:17:36.327Z,71.03
2018-12-08T06:21:00.999Z,70.52
2018-12-08T06:24:25.658Z,70.72
2018-12-08T06:28:17.346Z,70.46
2018-12-08T06:31:42.021Z,71.17
2018-12-08T06:35:06.931Z,71.10
2018-12-08T06:38:32.452Z,70.70
2018-12-08T06:41:57.153Z,71.30
2018-12-08T06:45:21.971Z,70.87
2018-12-08T06:48:46.731Z,71.01
2018-12-08T06:52:12.207Z,70.67
2018-12-08T06:55:37.001Z,70.47
2018-12-08T06:59:01.690Z,70.06
2018-12-08T07:02:26.364Z,70.64
2018-12-08T07:05:51.084Z,71.97
2018-12-08T07:09:15.868Z,72.76
2018-12-08T07:12:40.632Z,75.16
2018-12-08T07:16:05.480Z,75.42
2018-12-08T07:19:30.128Z,79.16
2018-12-08T07:22:54.884Z,80.33
2018-12-08T07:26:19.605Z,80.58
2018-12-08T07:29:44.346Z,80.85
2018-12-08T07:33:09.035Z,81.83
2018-12-08T07:36:33.765Z,82.16
2018-12-08T07:39:58.386Z,83.20
2018-12-08T07:43:23.044Z,83.38
2018-12-08T07:46:47.742Z,83.75
2018-12-08T07:50:12.632Z,84.54
2018-12-08T07:53:37.340Z,84.52
2018-12-08T07:57:01.992Z,84.57
2018-12-08T08:00:26.680Z,83.78
2018-12-08T08:03:51.739Z,84.79
2018-12-08T08:07:16.451Z,83.45
2018-12-08T08:10:41.105Z,83.48
2018-12-08T08:14:05.907Z,83.80
2018-12-08T08:17:30.542Z,83.53
2018-12-08T08:20:55.174Z,83.41
2018-12-08T08:24:19.832Z,82.59
2018-12-08T08:27:44.579Z,82.57
2018-12-08T08:31:09.279Z,82.20
2018-12-08T08:34:34.026Z,82.37
2018-12-08T08:37:59.927Z,82.22
2018-12-08T08:41:24.631Z,82.52
2018-12-08T08:44:49.365Z,81.51
2018-12-08T08:48:14.110Z,82.28
2018-12-08T08:51:38.828Z,81.25
2018-12-08T08:55:03.553Z,81.21
2018-12-08T08:58:28.914Z,81.04
2018-12-08T09:01:53.607Z,80.87
2018-12-08T09:05:18.381Z,81.14
2018-12-08T09:08:43.082Z,79.53
2018-12-08T09:12:07.834Z,79.24
2018-12-08T09:15:32.553Z,78.36
2018-12-08T09:18:57.404Z,78.94
2018-12-08T09:22:22.109Z,78.04
2018-12-08T09:25:46.865Z,77.41
2018-12-08T09:29:11.598Z,77.10
2018-12-08T09:32:36.408Z,76.68
2018-12-08T09:36:01.051Z,76.91
2018-12-08T09:39:25.778Z,78.55
2018-12-08T09:42:50.463Z,80.26
2018-12-08T09:46:15.131Z,80.50
2018-12-08T09:49:39.983Z,81.01
2018-12-08T09:53:17.099Z,81.39
2018-12-08T09:56:41.838Z,81.56
2018-12-08T10:00:07.236Z,82.00
2018-12-08T10:03:32.184Z,84.06
2018-12-08T10:06:56.881Z,84.64
2018-12-08T10:10:21.592Z,84.10
2018-12-08T10:13:46.310Z,84.75
2018-12-08T10:17:10.991Z,84.20
2018-12-08T10:20:35.913Z,84.00
2018-12-08T10:24:00.644Z,83.89
2018-12-08T10:27:25.372Z,83.69
2018-12-08T10:30:50.070Z,83.73
2018-12-08T10:34:14.840Z,83.13
2018-12-08T10:37:40.576Z,82.89
2018-12-08T10:41:05.370Z,83.36
2018-12-08T10:44:30.111Z,82.59
2018-12-08T10:47:54.785Z,82.56
2018-12-08T10:51:19.514Z,82.70
2018-12-08T10:54:44.232Z,81.69
2018-12-08T10:58:08.925Z,82.57
2018-12-08T11:01:38.823Z,81.87
2018-12-08T11:05:03.586Z,82.64
2018-12-08T11:08:28.285Z,81.88
2018-12-08T11:11:53.031Z,81.93
2018-12-08T11:15:17.758Z,80.57
2018-12-08T11:18:43.045Z,79.32
2018-12-08T11:22:07.827Z,80.80
2018-12-08T11:25:32.580Z,80.28
2018-12-08T11:28:57.323Z,81.63
2018-12-08T11:32:25.111Z,79.99
2018-12-08T11:35:49.917Z,79.72
2018-12-08T11:39:14.736Z,79.31
2018-12-08T11:42:39.488Z,78.57
2018-12-08T11:46:04.299Z,78.43
2018-12-08T11:49:29.068Z,77.68
2018-12-08T11:52:53.738Z,78.40
2018-12-08T11:56:18.404Z,77.61
2018-12-08T11:59:43.128Z,77.03
2018-12-08T12:03:07.806Z,74.05
2018-12-08T12:06:32.552Z,73.51
2018-12-08T12:09:57.272Z,72.34
2018-12-08T12:13:21.960Z,72.19
2018-12-08T12:16:46.682Z,71.24
2018-12-08T12:20:11.445Z,70.99
2018-12-08T12:23:36.105Z,70.80
2018-12-08T12:27:00.850Z,70.77
2018-12-08T12:30:25.727Z,70.61
2018-12-08T12:33:50.400Z,69.71
2018-12-08T12:37:15.116Z,69.53
2018-12-08T12:40:39.875Z,69.82
2018-12-08T12:44:04.636Z,69.34
2018-12-08T12:47:29.381Z,69.67
2018-12-08T12:50:54.071Z,69.17
2018-12-08T12:54:18.923Z,69.09
2018-12-08T12:57:44.176Z,68.24
2018-12-08T13:01:09.094Z,69.75
2018-12-08T13:04:33.780Z,68.61
2018-12-08T13:07:58.465Z,68.56
2018-12-08T13:11:23.215Z,68.17
2018-12-08T13:14:47.897Z,68.66
2018-12-08T13:18:12.562Z,68.47
2018-12-08T13:21:37.954Z,67.97
2018-12-08T13:25:25.235Z,66.75
2018-12-08T13:28:49.900Z,66.77
2018-12-08T13:32:14.734Z,68.14
2018-12-08T13:35:58.660Z,67.61
2018-12-08T13:39:23.466Z,68.58
2018-12-08T13:42:48.139Z,69.14
2018-12-08T13:46:12.973Z,70.18
2018-12-08T13:49:37.702Z,69.99
2018-12-08T13:53:02.402Z,70.75
2018-12-08T13:56:27.103Z,70.88
2018-12-08T13:59:56.355Z,70.42
2018-12-08T14:03:20.997Z,70.61
2018-12-08T14:06:45.721Z,70.05
2018-12-08T14:10:10.488Z,70.46
2018-12-08T14:13:35.181Z,68.96
2018-12-08T14:16:59.880Z,69.18
2018-12-08T14:20:29.804Z,68.06
2018-12-08T14:23:54.470Z,68.32
2018-12-08T14:27:19.324Z,68.07
2018-12-08T14:30:44.125Z,66.33
2018-12-08T14:34:09.114Z,66.78
2018-12-08T14:37:33.852Z,66.85
2018-12-08T14:40:58.597Z,66.53
2018-12-08T14:44:23.919Z,65.79
2018-12-08T14:47:48.679Z,66.05
2018-12-08T14:51:13.390Z,65.92
2018-12-08T14:54:38.113Z,65.24
2018-12-08T14:58:03.870Z,66.00
2018-12-08T15:01:28.938Z,65.29
2018-12-08T15:04:53.641Z,65.25
2018-12-08T15:08:18.476Z,64.87
2018-12-08T15:11:43.187Z,64.84
2018-12-08T15:15:09.932Z,64.99
2018-12-08T15:18:34.675Z,64.82
2018-12-08T15:21:59.369Z,64.30
2018-12-08T15:25:24.050Z,64.43
2018-12-08T15:28:48.840Z,62.92
2018-12-08T15:32:14.666Z,62.91
2018-12-08T15:35:39.400Z,63.48
2018-12-08T15:39:06.853Z,63.78
2018-12-08T15:42:31.615Z,64.00
2018-12-08T15:45:56.393Z,63.48
2018-12-08T15:49:21.203Z,63.04
2018-12-08T15:52:45.924Z,62.38
2018-12-08T15:56:10.635Z,62.39
2018-12-08T15:59:35.431Z,62.65
2018-12-08T16:03:00.183Z,62.70
2018-12-08T16:06:25.062Z,61.90
2018-12-08T16:09:49.797Z,62.52
2018-12-08T16:13:14.435Z,62.97
2018-12-08T16:16:39.135Z,62.34
2018-12-08T16:20:03.997Z,62.83
2018-12-08T16:23:28.732Z,62.05
2018-12-08T16:26:53.477Z,61.96
2018-12-08T16:30:18.242Z,62.72
2018-12-08T16:33:42.992Z,63.38
2018-12-08T16:37:07.758Z,63.74
2018-12-08T16:40:32.518Z,63.15
2018-12-08T16:43:57.260Z,63.90
2018-12-08T16:47:22.015Z,65.51
2018-12-08T16:50:46.774Z,66.55
2018-12-08T16:54:11.705Z,68.19
2018-12-08T16:57:36.450Z,71.30
2018-12-08T17:01:01.924Z,73.96
2018-12-08T17:04:26.748Z,76.47
2018-12-08T17:07:51.477Z,78.24
2018-12-08T17:11:16.208Z,78.36
2018-12-08T17:14:40.914Z,79.71
2018-12-08T17:18:05.706Z,79.59
2018-12-08T17:21:30.501Z,79.55
2018-12-08T17:24:55.287Z,80.91
2018-12-08T17:28:19.970Z,80.96
2018-12-08T17:31:44.707Z,81.68
2018-12-08T17:35:09.538Z,82.81
2018-12-08T17:38:34.260Z,82.49
2018-12-08T17:41:58.946Z,81.93
2018-12-08T17:45:23.768Z,82.47
2018-12-08T17:48:48.468Z,84.85
2018-12-08T17:52:13.367Z,83.77
2018-12-08T17:55:38.095Z,84.94
2018-12-08T17:59:03.223Z,84.62
2018-12-08T18:02:28.122Z,85.33
2018-12-08T18:05:52.863Z,85.86
2018-12-08T18:09:17.586Z,85.55
2018-12-08T18:12:42.314Z,85.86
2018-12-08T18:16:07.026Z,86.21
2018-12-08T18:19:31.700Z,85.37
2018-12-08T18:22:56.496Z,84.68
2018-12-08T18:26:21.474Z,85.80
2018-12-08T18:29:46.172Z,85.80
2018-12-08T18:33:10.936Z,85.75
2018-12-08T18:36:35.616Z,85.83
2018-12-08T18:40:00.249Z,85.42
2018-12-08T18:43:24.962Z,84.51
2018-12-08T18:46:49.818Z,85.32
2018-12-08T18:50:14.665Z,86.51
2018-12-08T18:53:39.399Z,85.40
2018-12-08T18:57:04.080Z,86.79
2018-12-08T19:00:28.821Z,86.57
2018-12-08T19:03:53.707Z,86.92
2018-12-08T19:07:18.368Z,87.09
2018-12-08T19:10:43.034Z,86.98
2018-12-08T19:14:07.716Z,87.56
2018-12-08T19:17:32.380Z,87.07
2018-12-08T19:20:57.016Z,87.09
2018-12-08T19:24:21.678Z,86.61
2018-12-08T19:27:46.400Z,87.35
2018-12-08T19:31:11.186Z,87.00
2018-12-08T19:34:35.893Z,87.43
2018-12-08T19:38:00.584Z,86.62
2018-12-08T19:41:25.265Z,86.98
2018-12-08T19:44:49.931Z,88.03
2018-12-08T19:48:14.563Z,86.97
2018-12-08T19:51:39.222Z,87.03
2018-12-08T19:55:03.890Z,87.18
2018-12-08T19:58:28.667Z,87.31
2018-12-08T20:01:53.383Z,87.57
2018-12-08T20:05:18.074Z,87.07
2018-12-08T20:08:42.741Z,87.11
2018-12-08T20:12:07.541Z,87.75
2018-12-08T20:15:32.375Z,88.17
2018-12-08T20:18:57.055Z,88.16
2018-12-08T20:22:21.738Z,88.55
2018-12-08T20:25:46.484Z,88.79
2018-12-08T20:29:11.443Z,88.73
2018-12-08T20:32:36.150Z,87.84
2018-12-08T20:36:01.138Z,87.12
2018-12-08T20:39:25.874Z,86.59
2018-12-08T20:42:50.635Z,85.68
2018-12-08T20:46:15.318Z,86.25
2018-12-08T20:49:39.945Z,86.76
2018-12-08T20:53:04.642Z,86.96
2018-12-08T20:56:29.469Z,86.74
2018-12-08T20:59:54.235Z,85.60
2018-12-08T21:03:19.605Z,84.53
2018-12-08T21:06:44.546Z,85.13
2018-12-08T21:10:10.196Z,84.11
2018-12-08T21:13:34.904Z,85.16
2018-12-08T21:16:59.791Z,85.40
2018-12-08T21:20:24.624Z,85.03
2018-12-08T21:23:49.327Z,85.78
2018-12-08T21:27:14.039Z,84.42
2018-12-08T21:30:38.728Z,85.65
2018-12-08T21:34:03.583Z,85.89
2018-12-08T21:37:28.303Z,86.22
2018-12-08T21:40:53.034Z,86.88
2018-12-08T21:44:17.749Z,86.43
2018-12-08T21:47:42.477Z,86.57
2018-12-08T21:51:07.179Z,85.48
2018-12-08T21:54:31.845Z,85.00
2018-12-08T21:57:56.499Z,85.05
2018-12-08T22:01:21.254Z,84.34
2018-12-08T22:04:46.115Z,83.58
2018-12-08T22:08:11.116Z,83.85
2018-12-08T22:11:35.870Z,84.20
2018-12-08T22:15:03.443Z,83.65
2018-12-08T22:18:28.065Z,83.22
2018-12-08T22:21:52.866Z,83.95
2018-12-08T22:25:17.582Z,83.23
2018-12-08T22:28:42.429Z,82.00
2018-12-08T22:32:07.169Z,82.23
2018-12-08T22:35:31.912Z,81.96
2018-12-08T22:38:56.639Z,81.84
2018-12-08T22:42:21.414Z,81.87
2018-12-08T22:45:46.100Z,81.29
2018-12-08T22:49:10.806Z,80.37
2018-12-08T22:52:35.441Z,78.66
2018-12-08T22:56:00.068Z,79.53
2018-12-08T22:59:24.949Z,80.68
2018-12-08T23:02:51.671Z,82.16
2018-12-08T23:06:16.363Z,83.47
2018-12-08T23:09:41.017Z,82.66
2018-12-08T23:13:05.737Z,84.92
2018-12-08T23:16:30.541Z,84.96
2018-12-08T23:19:55.186Z,84.20
2018-12-08T23:23:20.517Z,84.35
2018-12-08T23:26:45.856Z,84.27
2018-12-08T23:30:11.054Z,81.98
2018-12-08T23:33:35.782Z,83.68
2018-12-08T23:37:00.555Z,84.38
2018-12-08T23:40:25.367Z,84.98
2018-12-08T23:43:50.100Z,84.55
2018-12-08T23:47:14.952Z,84.59
2018-12-08T23:50:40.573Z,84.54
2018-12-08T23:54:05.299Z,84.06
2018-12-08T23:57:29.977Z,85.10
